Time;durP1;ratioP1;P1;durP2;ratioP2;P2;SDS_P1;SDS_P2;PMS_P1;PMS_P2;Temp;Humidity;BMP_temperature;BMP_pressure;BME280_temperature;BME280_humidity;BME280_pressure;Samples;Min_cycle;Max_cycle;Signal;HPM_P1;HPM_P2
2021/06/09 00:00:37;;;;;;;4.43;4.07;;;20.20;99.90;;;;;;4934365;29;20223;-83
2021/06/09 00:03:03;;;;;;;3.55;3.22;;;20.10;99.90;;;;;;4936100;29;20201;-82
2021/06/09 00:05:31;;;;;;;4.63;4.20;;;20.10;99.90;;;;;;4936052;29;20220;-81
2021/06/09 00:07:59;;;;;;;4.00;3.60;;;20.10;99.90;;;;;;4934712;29;20278;-83
2021/06/09 00:10:26;;;;;;;3.47;3.20;;;20.10;99.90;;;;;;4936443;29;20220;-83
2021/06/09 00:12:53;;;;;;;3.50;3.20;;;19.90;99.90;;;;;;4924464;29;20397;-83
2021/06/09 00:15:19;;;;;;;3.53;3.15;;;20.00;99.90;;;;;;4932280;29;20204;-84
2021/06/09 00:17:46;;;;;;;3.72;3.13;;;20.00;99.90;;;;;;4941331;29;20208;-82
2021/06/09 00:20:17;;;;;;;3.47;3.17;;;19.90;99.90;;;;;;4927128;29;20235;-82
2021/06/09 00:22:44;;;;;;;3.63;2.85;;;19.90;99.90;;;;;;4925606;29;20207;-83
2021/06/09 00:25:16;;;;;;;3.58;2.83;;;20.00;99.90;;;;;;4925109;29;20200;-84
2021/06/09 00:27:44;;;;;;;3.17;2.97;;;20.00;99.90;;;;;;4927974;29;20236;-83
2021/06/09 00:30:13;;;;;;;2.63;2.45;;;20.00;99.90;;;;;;4923122;29;20636;-83
2021/06/09 00:32:40;;;;;;;2.78;2.55;;;20.00;99.90;;;;;;4928116;29;20224;-83
2021/06/09 00:35:07;;;;;;;4.00;2.75;;;19.90;99.90;;;;;;4927169;29;20196;-83
2021/06/09 00:37:34;;;;;;;2.65;2.30;;;20.00;99.90;;;;;;4925626;29;20216;-83
2021/06/09 00:40:01;;;;;;;2.28;2.17;;;20.00;99.90;;;;;;4925683;29;20223;-82
2021/06/09 00:42:30;;;;;;;2.78;2.10;;;20.00;99.90;;;;;;4925828;29;20196;-83
2021/06/09 00:44:56;;;;;;;2.55;2.03;;;20.00;99.90;;;;;;4920648;29;20201;-83
2021/06/09 00:47:25;;;;;;;1.55;1.50;;;20.00;99.90;;;;;;4925919;29;20268;-85
2021/06/09 00:49:52;;;;;;;1.92;1.83;;;19.90;99.90;;;;;;4943455;29;20236;-85
2021/06/09 00:52:23;;;;;;;2.33;1.85;;;19.80;99.90;;;;;;4943462;29;20199;-85
2021/06/09 00:54:50;;;;;;;3.25;2.10;;;19.80;99.90;;;;;;4943697;29;20192;-85
2021/06/09 00:57:18;;;;;;;2.60;2.40;;;19.90;99.90;;;;;;4943720;29;20222;-85
2021/06/09 00:59:47;;;;;;;2.45;2.33;;;20.00;99.90;;;;;;4927563;29;20205;-85
2021/06/09 01:02:14;;;;;;;2.72;2.53;;;20.00;99.90;;;;;;4918841;29;20668;-82
2021/06/09 01:04:41;;;;;;;2.78;2.17;;;20.00;99.90;;;;;;4911305;29;20200;-82
2021/06/09 01:07:09;;;;;;;2.03;1.70;;;20.10;99.90;;;;;;4921589;29;20566;-82
2021/06/09 01:09:36;;;;;;;2.03;1.80;;;20.00;99.90;;;;;;4920980;29;20243;-83
2021/06/09 01:12:03;;;;;;;1.80;1.70;;;19.90;99.90;;;;;;4907374;29;20200;-82
2021/06/09 01:14:31;;;;;;;3.25;1.65;;;19.90;99.90;;;;;;4921677;29;20208;-83
2021/06/09 01:17:01;;;;;;;1.70;1.60;;;19.80;99.90;;;;;;4925468;29;20240;-83
2021/06/09 01:19:28;;;;;;;4.00;2.30;;;19.70;99.90;;;;;;4927695;29;20231;-84
2021/06/09 01:21:56;;;;;;;8.27;2.25;;;19.60;99.90;;;;;;4926856;29;20204;-84
2021/06/09 01:24:23;;;;;;;1.90;1.80;;;19.50;99.90;;;;;;4928307;29;20200;-85
2021/06/09 01:26:50;;;;;;;2.25;2.05;;;19.40;99.90;;;;;;4921152;29;20213;-82
2021/06/09 01:29:18;;;;;;;2.47;1.85;;;19.40;99.90;;;;;;4921886;29;20334;-82
2021/06/09 01:31:45;;;;;;;4.95;2.30;;;19.40;99.90;;;;;;4924474;29;20268;-81
2021/06/09 01:34:12;;;;;;;2.20;1.85;;;19.40;99.90;;;;;;4921139;29;20192;-82
2021/06/09 01:36:41;;;;;;;3.88;2.83;;;19.40;99.90;;;;;;4921014;29;20587;-82
2021/06/09 01:39:12;;;;;;;2.50;1.98;;;19.40;99.90;;;;;;4921537;29;20254;-82
2021/06/09 01:41:42;;;;;;;2.13;1.92;;;19.40;99.90;;;;;;4923057;29;20204;-81
2021/06/09 01:44:10;;;;;;;2.40;2.20;;;19.30;99.90;;;;;;4922867;29;20185;-81
2021/06/09 01:46:37;;;;;;;2.20;2.00;;;19.30;99.90;;;;;;4921372;29;20287;-82
2021/06/09 01:49:07;;;;;;;2.80;2.33;;;19.20;99.90;;;;;;4917226;29;20255;-82
2021/06/09 01:51:34;;;;;;;2.25;1.92;;;19.20;99.90;;;;;;4906324;29;20205;-81
2021/06/09 01:54:02;;;;;;;3.40;2.25;;;19.10;99.90;;;;;;4924560;29;20579;-83
2021/06/09 01:56:30;;;;;;;2.40;2.20;;;19.10;99.90;;;;;;4922999;29;20219;-82
2021/06/09 01:58:56;;;;;;;4.63;2.17;;;19.10;99.90;;;;;;4919905;29;20217;-81
2021/06/09 02:01:24;;;;;;;2.00;1.80;;;19.10;99.90;;;;;;4918652;29;20196;-83
2021/06/09 02:03:50;;;;;;;2.30;2.10;;;19.10;99.90;;;;;;4943668;29;20210;-82
2021/06/09 02:06:17;;;;;;;3.28;2.20;;;19.20;99.90;;;;;;4943060;29;20230;-81
2021/06/09 02:08:54;;;;;;;2.50;1.90;;;19.20;99.90;;;;;;4936851;29;20217;-82
2021/06/09 02:11:21;;;;;;;2.45;2.15;;;19.20;99.90;;;;;;4919182;29;20244;-81
2021/06/09 02:13:50;;;;;;;3.75;2.78;;;19.20;99.90;;;;;;4906142;29;20215;-84
2021/06/09 02:16:17;;;;;;;4.30;2.13;;;19.20;99.90;;;;;;4903488;29;20272;-82
2021/06/09 02:18:44;;;;;;;2.45;2.08;;;19.20;99.90;;;;;;4887353;29;20232;-82
2021/06/09 02:21:11;;;;;;;2.10;1.98;;;19.10;99.90;;;;;;4904458;29;20201;-83
2021/06/09 02:23:38;;;;;;;3.05;2.15;;;19.10;99.90;;;;;;4902925;29;20299;-83
2021/06/09 02:26:06;;;;;;;3.60;2.25;;;19.10;99.90;;;;;;4902921;29;20208;-83
2021/06/09 02:28:33;;;;;;;2.55;1.92;;;19.10;99.90;;;;;;4904228;29;20216;-80
2021/06/09 02:31:02;;;;;;;4.32;2.58;;;19.00;99.90;;;;;;4904311;29;20201;-81
2021/06/09 02:33:29;;;;;;;2.67;1.90;;;19.00;99.90;;;;;;4907672;29;20196;-82
2021/06/09 02:35:58;;;;;;;3.40;2.42;;;19.00;99.90;;;;;;4923699;29;20207;-82
2021/06/09 02:38:25;;;;;;;3.50;2.38;;;18.90;99.90;;;;;;4907078;29;20671;-82
2021/06/09 02:40:55;;;;;;;3.80;2.03;;;18.90;99.90;;;;;;4923861;29;20208;-83
2021/06/09 02:43:29;;;;;;;3.10;2.05;;;18.80;99.90;;;;;;4922375;29;20203;-82
2021/06/09 02:45:58;;;;;;;3.88;2.75;;;18.80;99.90;;;;;;4927569;29;20188;-82
2021/06/09 02:48:31;;;;;;;1.95;1.75;;;18.80;99.90;;;;;;4939639;29;20180;-83
2021/06/09 02:51:00;;;;;;;2.38;2.17;;;18.80;99.90;;;;;;4927444;29;20212;-83
2021/06/09 02:53:32;;;;;;;2.75;2.53;;;18.80;99.90;;;;;;4920323;29;20219;-83
2021/06/09 02:56:23;;;;;;;2.63;2.08;;;18.70;99.90;;;;;;4925972;29;20208;-83
2021/06/09 02:59:03;;;;;;;2.28;2.05;;;18.80;99.90;;;;;;4925760;29;20228;-83
2021/06/09 03:01:34;;;;;;;4.28;2.33;;;18.80;99.90;;;;;;4929085;29;20200;-82
2021/06/09 03:04:15;;;;;;;2.20;2.00;;;18.80;99.90;;;;;;4930582;29;20263;-81
2021/06/09 03:06:49;;;;;;;4.75;2.78;;;18.90;99.90;;;;;;4927815;29;20220;-80
2021/06/09 03:09:26;;;;;;;2.78;2.30;;;18.80;99.90;;;;;;4926079;29;20228;-82
2021/06/09 03:11:58;;;;;;;2.53;2.33;;;18.80;99.90;;;;;;4935116;29;20175;-84
2021/06/09 03:17:21;;;;;;;3.55;2.63;;;18.80;99.90;;;;;;4941015;29;20216;-84
2021/06/09 03:20:01;;;;;;;3.55;2.60;;;18.80;99.90;;;;;;4939039;23;20226;-82
2021/06/09 03:22:38;;;;;;;2.67;2.47;;;18.80;99.90;;;;;;4949667;29;20277;-82
2021/06/09 03:25:06;;;;;;;2.47;2.28;;;18.70;99.90;;;;;;4950341;29;20198;-83
2021/06/09 03:27:39;;;;;;;2.80;2.45;;;18.70;99.90;;;;;;4950077;29;20230;-83
2021/06/09 03:30:09;;;;;;;3.58;2.72;;;18.70;99.90;;;;;;4966346;28;20238;-82
2021/06/09 03:32:42;;;;;;;3.35;3.00;;;18.50;99.90;;;;;;4964767;28;20277;-82
2021/06/09 03:35:18;;;;;;;3.78;2.95;;;18.50;99.90;;;;;;4930425;29;20246;-82
2021/06/09 03:37:48;;;;;;;3.50;2.50;;;18.40;99.90;;;;;;4931773;29;20304;-82
2021/06/09 03:40:18;;;;;;;6.63;2.72;;;18.40;99.90;;;;;;4914759;29;20231;-83
2021/06/09 03:42:48;;;;;;;4.22;2.75;;;18.40;99.90;;;;;;4932477;29;20207;-83
2021/06/09 03:45:16;;;;;;;5.38;3.10;;;18.40;99.90;;;;;;4949970;29;20207;-82
2021/06/09 03:47:45;;;;;;;3.38;3.13;;;18.50;99.90;;;;;;4917229;29;20195;-83
2021/06/09 03:50:14;;;;;;;5.55;3.10;;;18.50;99.90;;;;;;4960665;29;20281;-83
2021/06/09 03:53:03;;;;;;;4.18;2.65;;;18.50;99.90;;;;;;4954910;29;20256;-83
2021/06/09 03:55:34;;;;;;;3.00;2.72;;;18.40;99.90;;;;;;4954912;29;20260;-83
2021/06/09 03:58:02;;;;;;;3.63;2.65;;;18.30;99.90;;;;;;4953851;29;20218;-83
2021/06/09 04:00:30;;;;;;;2.83;2.50;;;18.30;99.90;;;;;;4954571;29;20289;-82
2021/06/09 04:02:58;;;;;;;4.20;3.30;;;18.30;99.90;;;;;;4955139;29;20203;-83
2021/06/09 04:05:28;;;;;;;4.55;3.15;;;18.40;99.90;;;;;;4955092;29;20202;-82
2021/06/09 04:07:58;;;;;;;3.05;2.75;;;18.50;99.90;;;;;;4972661;28;20194;-83
2021/06/09 04:10:26;;;;;;;3.45;2.80;;;18.50;99.90;;;;;;4954269;29;20219;-82
2021/06/09 04:12:53;;;;;;;3.50;2.80;;;18.60;99.90;;;;;;4971998;28;20209;-82
2021/06/09 04:15:23;;;;;;;5.00;2.85;;;18.60;99.90;;;;;;4955523;28;20230;-83
2021/06/09 04:17:51;;;;;;;3.40;2.85;;;18.70;99.90;;;;;;4972400;28;20230;-82
2021/06/09 04:20:23;;;;;;;5.90;3.58;;;18.80;99.90;;;;;;4948156;29;20223;-82
2021/06/09 04:22:52;;;;;;;3.22;2.97;;;18.80;99.90;;;;;;4936231;29;20278;-84
2021/06/09 04:25:19;;;;;;;5.00;2.80;;;18.80;99.90;;;;;;4936765;29;20211;-82
2021/06/09 04:27:48;;;;;;;3.50;2.95;;;18.90;99.90;;;;;;4953948;29;20200;-82
2021/06/09 04:30:16;;;;;;;3.90;3.50;;;19.00;99.90;;;;;;4935902;29;20233;-83
2021/06/09 04:32:52;;;;;;;3.47;3.22;;;19.00;99.90;;;;;;4936853;29;20231;-82
2021/06/09 04:35:19;;;;;;;4.75;3.63;;;19.10;99.90;;;;;;4948912;29;20202;-83
2021/06/09 04:37:46;;;;;;;3.83;3.20;;;19.00;99.90;;;;;;4937685;29;20227;-82
2021/06/09 04:40:22;;;;;;;3.95;3.50;;;19.10;99.90;;;;;;4970956;28;20226;-82
2021/06/09 04:42:53;;;;;;;4.22;2.60;;;19.20;99.90;;;;;;4953360;29;20206;-82
2021/06/09 04:45:21;;;;;;;3.75;3.45;;;19.20;99.90;;;;;;4939112;29;20206;-82
2021/06/09 04:47:49;;;;;;;4.55;3.65;;;19.30;99.90;;;;;;4954454;29;20198;-82
2021/06/09 04:50:17;;;;;;;4.90;3.53;;;19.30;99.90;;;;;;4971436;28;20234;-82
2021/06/09 04:52:44;;;;;;;3.58;3.15;;;19.30;99.90;;;;;;4953953;29;20219;-82
2021/06/09 04:55:12;;;;;;;4.43;3.70;;;19.30;99.90;;;;;;4970448;28;20206;-83
2021/06/09 04:57:40;;;;;;;3.13;2.58;;;19.30;99.90;;;;;;4971065;28;20226;-82
2021/06/09 05:00:11;;;;;;;6.65;3.67;;;19.30;99.90;;;;;;4952603;28;20709;-82
2021/06/09 05:02:38;;;;;;;5.38;3.83;;;19.30;99.90;;;;;;4952167;29;20203;-82
2021/06/09 05:05:06;;;;;;;6.75;5.18;;;19.30;99.90;;;;;;4952426;28;20195;-82
2021/06/09 05:07:33;;;;;;;9.23;8.32;;;19.30;99.90;;;;;;4952416;28;20286;-82
2021/06/09 05:10:00;;;;;;;11.63;5.38;;;19.40;99.90;;;;;;4970585;28;20226;-82
2021/06/09 05:12:30;;;;;;;6.93;4.28;;;19.50;99.90;;;;;;4970889;28;20214;-82
2021/06/09 05:15:01;;;;;;;6.65;3.45;;;19.70;99.90;;;;;;4954541;29;20229;-81
2021/06/09 05:17:33;;;;;;;6.05;4.03;;;19.80;99.90;;;;;;4954613;29;20214;-82
2021/06/09 05:20:01;;;;;;;3.55;2.85;;;20.00;99.90;;;;;;4947312;29;20286;-82
2021/06/09 05:22:32;;;;;;;4.03;3.63;;;19.90;99.90;;;;;;4933967;29;20234;-82
2021/06/09 05:25:03;;;;;;;4.22;3.38;;;19.90;99.90;;;;;;4918531;29;20214;-81
2021/06/09 05:27:31;;;;;;;4.78;4.35;;;20.00;99.90;;;;;;4952141;29;20263;-81
2021/06/09 05:30:00;;;;;;;8.85;4.68;;;20.00;99.90;;;;;;4934045;28;20317;-81
2021/06/09 05:32:28;;;;;;;8.38;5.00;;;20.10;99.90;;;;;;4969087;28;20704;-82
2021/06/09 05:34:57;;;;;;;8.30;4.72;;;20.00;99.90;;;;;;4969085;28;20254;-81
2021/06/09 05:37:24;;;;;;;4.28;3.60;;;20.00;99.90;;;;;;4964770;28;20231;-83
2021/06/09 05:39:54;;;;;;;5.68;5.15;;;19.90;99.90;;;;;;4950837;29;20210;-82
2021/06/09 05:42:21;;;;;;;15.93;9.25;;;19.90;99.90;;;;;;4964076;28;20623;-81
2021/06/09 05:44:48;;;;;;;17.77;14.85;;;19.90;99.90;;;;;;4973671;28;20223;-81
2021/06/09 05:47:17;;;;;;;5.53;5.03;;;19.90;99.90;;;;;;4946728;29;20200;-82
2021/06/09 05:49:43;;;;;;;4.22;3.83;;;20.00;99.90;;;;;;4949538;29;20737;-82
2021/06/09 05:52:11;;;;;;;4.75;4.35;;;20.00;99.90;;;;;;4931049;29;20203;-82
2021/06/09 05:54:41;;;;;;;4.78;3.70;;;20.10;99.90;;;;;;4935622;28;20213;-82
2021/06/09 05:57:10;;;;;;;4.10;3.80;;;20.20;99.90;;;;;;4968077;29;20250;-82
2021/06/09 05:59:39;;;;;;;5.82;4.40;;;20.10;99.90;;;;;;4950131;29;20238;-81
2021/06/09 06:02:06;;;;;;;6.20;4.15;;;20.10;99.90;;;;;;4934146;29;20600;-81
2021/06/09 06:04:36;;;;;;;4.80;4.35;;;20.10;99.90;;;;;;4952726;29;20203;-81
2021/06/09 06:07:06;;;;;;;4.45;4.03;;;20.10;99.90;;;;;;4968356;29;20191;-81
2021/06/09 06:09:33;;;;;;;4.45;4.05;;;20.20;99.90;;;;;;4967589;28;20673;-81
2021/06/09 06:12:02;;;;;;;5.28;4.38;;;20.20;99.90;;;;;;4932762;29;20235;-81
2021/06/09 06:14:30;;;;;;;4.22;3.92;;;20.20;99.90;;;;;;4947643;29;20231;-81
2021/06/09 06:16:57;;;;;;;4.15;3.85;;;20.30;99.90;;;;;;4948226;28;20632;-77
2021/06/09 06:19:35;;;;;;;4.40;3.65;;;20.50;99.90;;;;;;4920142;29;20258;-77
2021/06/09 06:22:07;;;;;;;4.50;3.88;;;20.50;99.90;;;;;;4955123;28;20232;-77
2021/06/09 06:24:38;;;;;;;4.40;4.00;;;20.60;99.90;;;;;;4955076;28;20212;-78
2021/06/09 06:27:07;;;;;;;4.55;3.88;;;20.80;99.90;;;;;;4959430;28;20191;-77
2021/06/09 06:29:38;;;;;;;5.45;3.40;;;21.00;99.90;;;;;;4950680;28;20234;-76
2021/06/09 06:32:06;;;;;;;5.90;4.60;;;21.00;99.90;;;;;;4953709;28;20210;-77
2021/06/09 06:34:37;;;;;;;3.78;3.47;;;21.10;99.90;;;;;;4937145;28;20610;-77
2021/06/09 06:37:06;;;;;;;5.80;4.38;;;21.00;99.90;;;;;;4934025;29;20605;-77
2021/06/09 06:39:34;;;;;;;4.47;3.92;;;21.20;99.90;;;;;;4951355;28;20579;-77
2021/06/09 06:42:01;;;;;;;4.10;3.65;;;21.20;99.90;;;;;;4952138;28;20668;-77
2021/06/09 06:44:28;;;;;;;4.15;3.70;;;21.40;99.90;;;;;;4952533;28;20258;-77
2021/06/09 06:46:55;;;;;;;4.40;3.97;;;21.60;99.90;;;;;;4935792;29;20653;-77
2021/06/09 06:49:22;;;;;;;4.28;3.90;;;21.60;99.90;;;;;;4954258;28;20666;-77
2021/06/09 06:51:52;;;;;;;4.70;4.22;;;21.50;99.90;;;;;;4953492;28;20208;-77
2021/06/09 06:54:20;;;;;;;4.05;3.67;;;21.60;99.90;;;;;;4949968;29;20203;-79
2021/06/09 06:56:49;;;;;;;5.88;3.47;;;21.60;99.90;;;;;;4944607;28;20250;-80
2021/06/09 06:59:16;;;;;;;5.57;5.07;;;21.70;99.90;;;;;;4967234;28;20227;-79
2021/06/09 07:01:43;;;;;;;7.38;6.40;;;21.90;99.90;;;;;;4966145;28;20210;-80
2021/06/09 07:04:15;;;;;;;4.60;4.13;;;21.90;99.90;;;;;;4949396;28;20238;-79
2021/06/09 07:06:43;;;;;;;5.75;3.40;;;22.00;99.90;;;;;;4986495;28;20580;-79
2021/06/09 07:09:12;;;;;;;6.90;4.40;;;22.10;99.90;;;;;;4975952;28;20222;-79
2021/06/09 07:11:42;;;;;;;3.88;3.58;;;22.20;99.90;;;;;;4947597;29;20213;-78
2021/06/09 07:14:10;;;;;;;4.05;3.72;;;22.30;99.90;;;;;;4947141;29;20239;-79
2021/06/09 07:16:39;;;;;;;4.18;3.78;;;22.40;99.90;;;;;;4964445;29;20191;-80
2021/06/09 07:19:07;;;;;;;5.00;3.45;;;22.40;99.90;;;;;;4963611;29;20246;-79
2021/06/09 07:21:35;;;;;;;4.28;3.17;;;22.30;99.90;;;;;;4957022;28;20205;-79
2021/06/09 07:24:03;;;;;;;3.90;3.60;;;22.00;99.90;;;;;;4983285;28;20202;-79
2021/06/09 07:26:36;;;;;;;4.03;3.65;;;22.00;99.90;;;;;;4986277;28;20677;-80
2021/06/09 07:29:03;;;;;;;6.13;3.88;;;21.90;99.90;;;;;;4986465;28;20284;-80
2021/06/09 07:31:31;;;;;;;3.60;3.30;;;22.10;99.90;;;;;;4987182;28;20672;-80
2021/06/09 07:33:58;;;;;;;5.15;3.47;;;22.10;99.90;;;;;;4966710;28;20210;-79
2021/06/09 07:36:29;;;;;;;4.82;4.43;;;22.30;99.90;;;;;;4985063;28;20202;-79
2021/06/09 07:39:02;;;;;;;5.53;3.72;;;22.40;99.90;;;;;;4985499;28;20244;-80
2021/06/09 07:41:33;;;;;;;6.45;3.97;;;22.60;99.90;;;;;;4969328;28;20209;-79
2021/06/09 07:44:05;;;;;;;5.93;4.03;;;22.70;99.90;;;;;;4975394;28;20215;-80
2021/06/09 07:46:33;;;;;;;4.18;3.78;;;23.00;99.90;;;;;;4977264;28;20229;-80
2021/06/09 07:49:04;;;;;;;5.20;3.95;;;23.10;99.90;;;;;;4975687;28;20511;-81
2021/06/09 07:51:32;;;;;;;6.15;4.55;;;23.20;99.90;;;;;;4986413;28;20220;-81
2021/06/09 07:54:01;;;;;;;3.92;3.55;;;23.30;99.90;;;;;;4988240;28;20205;-79
2021/06/09 07:56:31;;;;;;;4.45;4.05;;;23.50;99.90;;;;;;4987430;28;20253;-80
2021/06/09 07:59:01;;;;;;;5.90;4.45;;;23.50;99.90;;;;;;4986960;28;20179;-80
2021/06/09 08:01:28;;;;;;;4.90;4.25;;;23.60;99.90;;;;;;4970665;28;20202;-80
2021/06/09 08:03:56;;;;;;;4.47;3.83;;;23.60;99.90;;;;;;4951558;29;20210;-80
2021/06/09 08:06:24;;;;;;;5.30;4.90;;;23.60;99.90;;;;;;4967493;29;20293;-80
2021/06/09 08:08:52;;;;;;;5.68;4.70;;;23.70;99.90;;;;;;4963531;29;20239;-79
2021/06/09 08:11:20;;;;;;;8.02;5.55;;;23.60;99.90;;;;;;4967233;28;20465;-79
2021/06/09 08:13:51;;;;;;;5.30;4.22;;;23.60;99.90;;;;;;4964117;29;20230;-79
2021/06/09 08:16:20;;;;;;;5.05;4.60;;;23.60;99.90;;;;;;4956787;28;20263;-79
2021/06/09 08:18:48;;;;;;;5.03;4.45;;;23.70;99.90;;;;;;4967231;28;20242;-79
2021/06/09 08:21:16;;;;;;;4.63;4.22;;;23.90;99.90;;;;;;4951100;29;20210;-79
2021/06/09 08:23:43;;;;;;;5.45;4.65;;;24.00;99.90;;;;;;4966791;28;20198;-79
2021/06/09 08:26:13;;;;;;;4.13;3.83;;;24.00;99.90;;;;;;4955101;29;20206;-79
2021/06/09 08:28:43;;;;;;;6.43;5.32;;;24.20;99.90;;;;;;4960509;29;20290;-78
2021/06/09 08:31:12;;;;;;;5.10;4.60;;;24.20;99.90;;;;;;4946997;29;20234;-78
2021/06/09 08:33:41;;;;;;;4.35;3.95;;;24.30;99.90;;;;;;4964622;29;20278;-78
2021/06/09 08:36:10;;;;;;;5.03;4.63;;;24.20;99.90;;;;;;4983329;28;20202;-79
2021/06/09 08:38:37;;;;;;;6.47;5.18;;;24.40;99.90;;;;;;4969676;28;20222;-79
2021/06/09 08:41:05;;;;;;;6.47;5.97;;;24.60;99.90;;;;;;4949852;29;20233;-79
2021/06/09 08:43:33;;;;;;;5.35;4.90;;;24.50;99.90;;;;;;4952608;29;20701;-79
2021/06/09 08:46:02;;;;;;;6.55;6.05;;;24.30;99.90;;;;;;4970301;29;20227;-79
2021/06/09 08:48:30;;;;;;;6.90;5.55;;;24.50;99.90;;;;;;4951505;29;20211;-78
2021/06/09 08:50:58;;;;;;;6.05;5.47;;;24.60;99.90;;;;;;4950996;29;20710;-79
2021/06/09 08:53:25;;;;;;;6.80;6.28;;;24.60;99.90;;;;;;4945106;29;20593;-80
2021/06/09 08:55:52;;;;;;;6.18;5.68;;;24.90;99.90;;;;;;4965625;29;20213;-79
2021/06/09 08:58:21;;;;;;;6.75;6.07;;;24.70;99.90;;;;;;4955880;28;20757;-78
2021/06/09 09:00:47;;;;;;;5.95;5.53;;;24.70;99.90;;;;;;4951555;28;20287;-79
2021/06/09 09:03:14;;;;;;;6.75;6.15;;;24.80;99.90;;;;;;4950446;29;20203;-78
2021/06/09 09:05:40;;;;;;;7.53;5.72;;;24.90;99.90;;;;;;4963198;29;20681;-79
2021/06/09 09:08:09;;;;;;;7.20;6.60;;;25.10;99.90;;;;;;4963163;29;20199;-77
2021/06/09 09:10:36;;;;;;;6.50;6.00;;;25.20;99.90;;;;;;4951366;28;20274;-79
2021/06/09 09:13:04;;;;;;;7.25;6.75;;;25.30;99.90;;;;;;4944309;29;20200;-80
2021/06/09 09:15:31;;;;;;;8.27;7.57;;;25.50;99.90;;;;;;4980300;28;20193;-79
2021/06/09 09:18:00;;;;;;;7.25;6.65;;;25.50;99.90;;;;;;4986399;28;20230;-80
2021/06/09 09:20:29;;;;;;;7.32;6.65;;;25.60;99.90;;;;;;4958535;23;20249;-36
2021/06/09 09:22:58;;;;;;;8.10;7.32;;;25.50;99.90;;;;;;4926508;29;20206;-36
2021/06/09 09:25:28;;;;;;;7.57;6.95;;;25.60;99.90;;;;;;4929473;29;20210;-36
2021/06/09 09:27:56;;;;;;;7.93;7.22;;;25.50;99.90;;;;;;4925182;29;20203;-36
2021/06/09 09:30:25;;;;;;;8.55;7.75;;;25.60;99.90;;;;;;4919300;29;20204;-36
2021/06/09 09:33:04;;;;;;;8.65;7.95;;;25.60;99.90;;;;;;4938414;29;20207;-35
2021/06/09 09:35:33;;;;;;;7.25;6.55;;;25.70;99.90;;;;;;4948872;23;20243;-38
2021/06/09 09:38:20;;;;;;;7.70;7.10;;;25.70;99.90;;;;;;4935786;29;20254;-39
2021/06/09 09:41:04;;;;;;;8.75;7.90;;;26.00;99.90;;;;;;4938557;29;20288;-38
2021/06/09 09:43:52;;;;;;;9.27;8.57;;;26.10;99.90;;;;;;4931546;29;20195;-39
2021/06/09 09:46:21;;;;;;;9.05;8.35;;;26.10;99.90;;;;;;4919210;29;20267;-38
2021/06/09 09:49:08;;;;;;;7.80;7.00;;;26.10;99.90;;;;;;4904147;29;20207;-39
2021/06/09 09:51:38;;;;;;;8.02;7.22;;;26.30;99.90;;;;;;4921034;29;20255;-37
2021/06/09 09:54:06;;;;;;;8.48;7.80;;;26.50;99.90;;;;;;4910056;29;20304;-38
2021/06/09 09:56:37;;;;;;;7.45;6.70;;;26.50;99.90;;;;;;4900928;29;20256;-38
2021/06/09 09:59:07;;;;;;;8.75;7.85;;;26.60;99.90;;;;;;4914423;29;20479;-38
2021/06/09 10:01:35;;;;;;;7.25;6.55;;;26.40;99.90;;;;;;4924561;29;20209;-38
2021/06/09 10:04:04;;;;;;;6.93;6.38;;;26.40;99.90;;;;;;4920971;29;20470;-38
2021/06/09 10:06:34;;;;;;;8.10;7.40;;;26.50;99.90;;;;;;4927804;29;20228;-38
2021/06/09 10:09:10;;;;;;;8.02;7.30;;;26.70;99.90;;;;;;4926185;29;20189;-39
2021/06/09 10:11:44;;;;;;;8.52;7.63;;;27.00;99.90;;;;;;4901971;29;20654;-39
2021/06/09 10:14:21;;;;;;;7.20;6.57;;;26.90;99.90;;;;;;4915874;29;20223;-39
2021/06/09 10:16:55;;;;;;;9.43;7.82;;;26.80;99.90;;;;;;4906251;29;20199;-39
2021/06/09 10:19:22;;;;;;;9.57;8.68;;;27.00;99.90;;;;;;4906426;29;20339;-39
2021/06/09 10:21:52;;;;;;;8.25;7.20;;;27.20;99.90;;;;;;4927421;29;20211;-39
2021/06/09 10:24:22;;;;;;;7.68;6.95;;;27.10;99.90;;;;;;4919940;29;20733;-39
2021/06/09 10:26:54;;;;;;;8.25;7.60;;;27.10;99.90;;;;;;4919629;29;20580;-40
2021/06/09 10:29:23;;;;;;;8.10;7.30;;;27.00;99.90;;;;;;4932627;29;20581;-40
2021/06/09 10:31:53;;;;;;;7.70;6.97;;;27.00;99.90;;;;;;4919034;29;20567;-38
2021/06/09 10:34:22;;;;;;;8.00;7.30;;;27.00;99.90;;;;;;4932289;29;20223;-36
2021/06/09 10:36:52;;;;;;;7.63;6.97;;;27.10;99.90;;;;;;4916368;29;20682;-38
2021/06/09 10:39:21;;;;;;;8.55;7.85;;;27.10;99.90;;;;;;4920996;29;20583;-37
2021/06/09 10:41:51;;;;;;;9.75;8.00;;;27.20;99.90;;;;;;4931569;29;20206;-38
2021/06/09 10:44:21;;;;;;;8.77;7.82;;;27.50;99.90;;;;;;4931567;29;20236;-37
2021/06/09 10:46:50;;;;;;;6.55;6.05;;;27.90;99.90;;;;;;4919152;29;20215;-37
2021/06/09 10:49:18;;;;;;;7.40;6.68;;;27.80;99.90;;;;;;4914625;29;20201;-38
2021/06/09 10:51:47;;;;;;;7.13;6.60;;;27.70;99.90;;;;;;4910860;29;20212;-39
2021/06/09 10:54:15;;;;;;;8.75;7.88;;;27.70;99.90;;;;;;4926576;29;20215;-38
2021/06/09 10:56:45;;;;;;;7.72;7.13;;;27.90;99.90;;;;;;4933649;29;20234;-38
2021/06/09 10:59:15;;;;;;;8.75;7.95;;;28.00;99.90;;;;;;4913995;29;20216;-37
2021/06/09 11:01:43;;;;;;;8.57;7.75;;;27.90;99.90;;;;;;4915470;29;20675;-37
2021/06/09 11:04:11;;;;;;;8.30;7.50;;;27.70;99.90;;;;;;4915214;29;20230;-38
2021/06/09 11:06:40;;;;;;;7.57;6.97;;;27.50;99.90;;;;;;4915457;29;20414;-37
2021/06/09 11:09:19;;;;;;;8.32;7.60;;;27.50;99.90;;;;;;4915171;29;20188;-38
2021/06/09 11:12:09;;;;;;;8.40;7.65;;;27.60;99.90;;;;;;4930135;29;20255;-38
2021/06/09 11:14:45;;;;;;;7.70;7.00;;;27.90;99.90;;;;;;4926860;29;20228;-37
2021/06/09 11:17:12;;;;;;;7.95;7.28;;;28.10;99.90;;;;;;4914385;29;20204;-39
2021/06/09 11:19:42;;;;;;;7.95;7.10;;;28.30;99.90;;;;;;4912694;29;20579;-39
2021/06/09 11:22:21;;;;;;;8.52;6.72;;;28.50;99.90;;;;;;4906474;29;20251;-39
2021/06/09 11:25:15;;;;;;;7.35;6.65;;;28.60;99.90;;;;;;4913970;29;20232;-41
2021/06/09 11:27:51;;;;;;;10.52;6.82;;;28.80;99.90;;;;;;4928159;29;20194;-39
2021/06/09 11:30:46;;;;;;;7.30;6.63;;;29.00;99.90;;;;;;4931057;29;20249;-40
2021/06/09 11:33:32;;;;;;;7.70;6.20;;;29.20;99.90;;;;;;4905124;29;20200;-40
2021/06/09 11:36:00;;;;;;;7.88;7.18;;;29.40;99.90;;;;;;4914288;29;20326;-41
2021/06/09 11:38:28;;;;;;;8.25;6.95;;;29.50;99.90;;;;;;4914693;29;20331;-40
2021/06/09 11:40:59;;;;;;;7.90;7.30;;;29.50;99.90;;;;;;4914241;29;20214;-41
2021/06/09 11:43:28;;;;;;;7.55;6.75;;;29.50;99.90;;;;;;4924215;29;20203;-38
2021/06/09 11:46:01;;;;;;;8.23;7.45;;;29.60;99.90;;;;;;4933379;29;20207;-42
2021/06/09 11:48:30;;;;;;;8.73;6.78;;;29.20;99.90;;;;;;4923633;29;20224;-43
2021/06/09 11:51:17;;;;;;;8.38;7.50;;;28.90;99.90;;;;;;4931581;29;20606;-39
2021/06/09 11:53:47;;;;;;;7.47;6.78;;;28.30;99.90;;;;;;4926556;29;20211;-39
2021/06/09 11:56:20;;;;;;;7.75;7.05;;;28.40;99.90;;;;;;4916049;29;20231;-37
2021/06/09 11:58:48;;;;;;;7.60;6.93;;;28.50;99.90;;;;;;4899420;29;20244;-36
2021/06/09 12:01:18;;;;;;;7.03;6.43;;;28.10;99.90;;;;;;4897245;29;20208;-36
2021/06/09 12:03:46;;;;;;;7.13;6.55;;;27.90;99.90;;;;;;4914165;29;20628;-39
2021/06/09 12:06:13;;;;;;;7.90;7.15;;;27.90;99.90;;;;;;4914202;29;20320;-40
2021/06/09 12:08:42;;;;;;;8.45;7.65;;;27.80;99.90;;;;;;4913988;29;20256;-39
2021/06/09 12:11:09;;;;;;;7.20;6.60;;;27.60;99.90;;;;;;4915926;29;20196;-41
2021/06/09 12:13:36;;;;;;;7.85;7.25;;;27.40;99.90;;;;;;4914200;29;20232;-39
2021/06/09 12:16:08;;;;;;;8.88;8.07;;;27.30;99.90;;;;;;4866651;29;20228;-38
2021/06/09 12:18:36;;;;;;;9.02;7.95;;;27.20;99.90;;;;;;4912932;29;20251;-38
2021/06/09 12:21:06;;;;;;;7.82;7.13;;;27.20;99.90;;;;;;4917645;29;20196;-40
2021/06/09 12:23:33;;;;;;;7.97;7.28;;;26.90;99.90;;;;;;4917528;29;20215;-41
2021/06/09 12:26:01;;;;;;;8.07;7.35;;;27.00;99.90;;;;;;4919623;29;20622;-39
2021/06/09 12:28:28;;;;;;;7.70;7.13;;;26.90;99.90;;;;;;4917356;29;20208;-40
2021/06/09 12:30:57;;;;;;;7.32;6.82;;;26.90;99.90;;;;;;4917348;29;20212;-39
2021/06/09 12:33:37;;;;;;;8.07;7.38;;;26.60;99.90;;;;;;4917652;29;20395;-38
2021/06/09 12:36:08;;;;;;;8.02;7.32;;;26.70;99.90;;;;;;4922198;29;20227;-40
2021/06/09 12:38:37;;;;;;;7.72;7.13;;;26.70;99.90;;;;;;4922447;29;20228;-39
2021/06/09 12:41:05;;;;;;;7.88;6.88;;;27.00;99.90;;;;;;4918298;29;20285;-40
2021/06/09 12:43:32;;;;;;;7.15;6.55;;;27.10;99.90;;;;;;4935752;29;20207;-39
2021/06/09 12:45:59;;;;;;;8.95;8.07;;;27.10;99.90;;;;;;4911427;29;20231;-39
2021/06/09 12:48:27;;;;;;;8.85;8.15;;;27.40;99.90;;;;;;4917092;29;20678;-41
2021/06/09 12:50:57;;;;;;;9.18;8.48;;;27.70;99.90;;;;;;4925321;29;20226;-38
2021/06/09 12:53:27;;;;;;;8.50;7.65;;;27.70;99.90;;;;;;4923526;29;20271;-38
2021/06/09 12:55:55;;;;;;;9.20;7.65;;;27.40;99.90;;;;;;4918852;29;20251;-38
2021/06/09 12:58:24;;;;;;;9.77;8.88;;;27.10;99.90;;;;;;4928879;29;20224;-39
2021/06/09 13:00:53;;;;;;;9.80;8.98;;;26.80;99.90;;;;;;4920105;29;20749;-39